Aviation Digital Data Service (ADDS)

Output produced by METARs form (1330 UTC 24 October 2014)
found at http://www.aviationweather.gov/adds/metars/
 
KUNV 241253Z 29007KT 10SM FEW030 09/04 A3003
KUNV 241153Z 29007KT 10SM FEW030 08/03 A3002
KUNV 241053Z 27005KT 10SM SKC 07/03 A3001
KUNV 240953Z 00000KT 10SM SKC 07/04 A3000
KUNV 240935Z AUTO 00000KT 10SM CLR 07/05 A3000 RMK AO2 T00720045
KUNV 240915Z AUTO 00000KT 10SM CLR 08/05 A3000 RMK AO2 T00800045
KUNV 240855Z AUTO 00000KT 10SM SCT039 SCT110 09/05 A2999 RMK AO2 T00870046
KUNV 240835Z AUTO 28004KT 10SM BKN039 09/05 A2998 RMK AO2 T00910050
KUNV 240815Z AUTO 31003KT 10SM OVC039 10/05 A2998 RMK AO2 T00950053
KUNV 240755Z AUTO 30006KT 10SM OVC039 10/06 A2998 RMK AO2 T00960055
KUNV 240735Z AUTO 31005KT 10SM OVC037 10/06 A2998 RMK AO2 T00980057
KUNV 240715Z AUTO 28005KT 10SM SCT035 09/06 A2998 RMK AO2 T00920058
KUNV 240655Z AUTO 33005KT 10SM SCT022 SCT036 09/06 A2998 RMK AO2 T00910059
KUNV 240635Z AUTO 25004KT 10SM SCT022 SCT036 08/06 A2997 RMK AO2 T00790056
KUNV 240615Z AUTO 00000KT 10SM CLR 08/05 A2996 RMK AO2 T00820053
KUNV 240555Z AUTO 26003KT 10SM CLR 07/05 A2997 RMK AO2 T00710049 10137 20071
KUNV 240535Z AUTO 00000KT 10SM CLR 09/05 A2997 RMK AO2 T00920053
KUNV 240515Z AUTO 30003KT 10SM CLR 10/05 A2997 RMK AO2 T00980051
KUNV 240455Z AUTO 28003KT 10SM CLR 10/05 A2998 RMK AO2 T00950049
KUNV 240435Z AUTO 33003KT 10SM SCT038 SCT047 10/05 A2997 RMK AO2 T01000048
KUNV 240415Z AUTO 00000KT 10SM SCT038 BKN047 10/05 A2998 RMK AO2 T01020046
KUNV 240355Z AUTO 32008KT 10SM BKN040 BKN047 11/05 A2998 RMK AO2 T01050045 401550081
KUNV 240335Z AUTO 32006KT 10SM BKN040 BKN048 OVC055 11/04 A2998 RMK AO2 T01070042
KUNV 240315Z AUTO 33009KT 10SM OVC055 11/04 A2998 RMK AO2 T01110042
KUNV 240255Z AUTO 31006KT 10SM OVC055 11/04 A2998 RMK AO2 T01120041
KUNV 240235Z AUTO 32009G15KT 10SM SCT044 BKN055 12/04 A2998 RMK AO2 T01150037
KUNV 240215Z AUTO 33006KT 10SM SCT042 11/04 A2998 RMK AO2 T01140035
KUNV 240155Z AUTO 33006KT 10SM SCT042 BKN070 12/03 A2998 RMK AO2 T01150031
KUNV 240053Z 34007KT 10SM BKN046 OVC070 13/03 A2997
KUNV 232353Z 34012G20KT 10SM OVC050 14/04 A2997
KUNV 232253Z 33010G15KT 10SM BKN055 15/04 A2993
KUNV 232153Z 34010G18KT 10SM BKN055 15/04 A2992
KUNV 232053Z 35012G19KT 10SM OVC049 15/05 A2992
KUNV 231953Z 36012G23KT 10SM OVC047 15/06 A2992
KUNV 231853Z 36014G27KT 10SM OVC043 15/05 A2992
KUNV 231753Z 35010G19KT 310V020 10SM BKN041 14/06 A2993
KUNV 231653Z 33012KT 10SM BKN035 13/06 A2994
KUNV 231553Z 36012KT 10SM OVC025 11/06 A2998
KUNV 231453Z 35012KT 10SM OVC021 10/05 A2999
KUNV 231353Z 36008G16KT 10SM OVC021 09/05 A2999
KUNV 231253Z 35008G16KT 320V020 10SM OVC021 09/04 A2999
KUNV 231153Z 35008G16KT 10SM OVC021 09/04 A2998
KUNV 231053Z 35004KT 10SM OVC023 09/05 A2998
KUNV 230953Z 36008KT 10SM OVC019 09/05 A2998
KUNV 230935Z AUTO 34006KT 10SM OVC019 09/05 A2998 RMK AO2 T00870050
KUNV 230915Z AUTO 35009G15KT 10SM OVC017 09/05 A2998 RMK AO2 T00860051
KUNV 230855Z AUTO 36009G14KT 10SM OVC017 09/05 A2998 RMK AO2 T00850052
KUNV 230835Z AUTO 36008G14KT 10SM OVC017 09/05 A2999 RMK AO2 LTG DSNT E T00860052
KUNV 230815Z AUTO 34006G16KT 10SM OVC017 09/05 A2999 RMK AO2 LTG DSNT E T00860051
KUNV 230755Z AUTO 36013G17KT 10SM OVC017 09/05 A2998 RMK AO2 LTG DSNT NE T00850051
KUNV 230735Z AUTO 33007G14KT 10SM OVC017 09/05 A2998 RMK AO2 T00850052
KUNV 230715Z AUTO 35010G15KT 10SM OVC017 09/05 A2999 RMK AO2 LTG DSNT E T00850051
KUNV 230655Z AUTO 35008G15KT 10SM -RA OVC017 09/05 A3000 RMK AO2 T00860052
KUNV 230635Z AUTO 35003KT 10SM OVC019 09/05 A3000 RMK AO2 T00850050
KUNV 230615Z AUTO 34007KT 10SM OVC019 09/05 A3000 RMK AO2 T00850050
KUNV 230555Z AUTO 36012G17KT 10SM OVC017 09/05 A3000 RMK AO2 T00850050 10085 20080
KUNV 230535Z AUTO 36006KT 10SM OVC017 09/05 A3000 RMK AO2 LTG DSNT NE T00850050
KUNV 230515Z AUTO 35007G14KT 10SM OVC017 08/05 A3001 RMK AO2 T00830050
KUNV 230455Z AUTO 01006KT 10SM OVC017 08/05 A3002 RMK AO2 T00820050
KUNV 230435Z AUTO 34009KT 10SM OVC017 08/05 A3002 RMK AO2 T00820050
KUNV 230415Z AUTO 36006KT 10SM OVC017 08/05 A3003 RMK AO2 T00820050
KUNV 230355Z AUTO 35007G18KT 10SM OVC017 08/05 A3004 RMK AO2 T00810048 401120080
KUNV 230335Z AUTO 35007G18KT 310V010 10SM OVC017 08/05 A3004 RMK AO2 LTG DSNT NE T00820047
KUNV 230315Z AUTO 36006G15KT 10SM OVC017 08/05 A3004 RMK AO2 LTG DSNT NE T00810047
KUNV 230255Z AUTO 35014G19KT 10SM OVC017 08/05 A3005 RMK AO2 LTG DSNT E T00800046
KUNV 230235Z AUTO 34007KT 10SM OVC019 08/05 A3005 RMK AO2 T00800045
KUNV 230215Z AUTO 36011KT 10SM OVC019 08/05 A3006 RMK AO2 T00800045
KUNV 230155Z AUTO 34010KT 300V360 10SM OVC019 08/05 A3006 RMK AO2 T00800045